sensor_id;sensor_type;location;lat;lon;timestamp;temperature;humidity
21734;DHT22;11029;47.820;10.534;2022-08-19T00:01:47;16.10;86.90
21734;DHT22;11029;47.820;10.534;2022-08-19T00:04:22;16.10;87.20
21734;DHT22;11029;47.820;10.534;2022-08-19T00:06:49;16.20;87.10
21734;DHT22;11029;47.820;10.534;2022-08-19T00:09:18;16.30;86.50
21734;DHT22;11029;47.820;10.534;2022-08-19T00:11:45;16.20;86.70
21734;DHT22;11029;47.820;10.534;2022-08-19T00:14:14;16.30;86.80
21734;DHT22;11029;47.820;10.534;2022-08-19T00:16:43;16.20;86.80
21734;DHT22;11029;47.820;10.534;2022-08-19T00:19:10;16.20;87.20
21734;DHT22;11029;47.820;10.534;2022-08-19T00:21:37;16.20;86.90
21734;DHT22;11029;47.820;10.534;2022-08-19T00:24:10;16.20;87.20
21734;DHT22;11029;47.820;10.534;2022-08-19T00:26:37;16.20;86.70
21734;DHT22;11029;47.820;10.534;2022-08-19T00:29:06;16.20;87.50
21734;DHT22;11029;47.820;10.534;2022-08-19T00:31:33;16.10;87.10
21734;DHT22;11029;47.820;10.534;2022-08-19T00:34:00;16.10;87.00
21734;DHT22;11029;47.820;10.534;2022-08-19T00:36:26;16.10;87.40
21734;DHT22;11029;47.820;10.534;2022-08-19T00:38:55;16.10;87.40
21734;DHT22;11029;47.820;10.534;2022-08-19T00:41:24;16.20;86.60
21734;DHT22;11029;47.820;10.534;2022-08-19T00:44:06;16.20;86.60
21734;DHT22;11029;47.820;10.534;2022-08-19T00:46:34;16.20;86.40
21734;DHT22;11029;47.820;10.534;2022-08-19T00:49:09;16.20;86.70
21734;DHT22;11029;47.820;10.534;2022-08-19T00:51:36;16.30;86.20
21734;DHT22;11029;47.820;10.534;2022-08-19T00:54:03;16.30;85.40
21734;DHT22;11029;47.820;10.534;2022-08-19T00:56:31;16.30;85.90
21734;DHT22;11029;47.820;10.534;2022-08-19T00:58:59;16.20;86.00
21734;DHT22;11029;47.820;10.534;2022-08-19T01:01:28;16.20;86.10
21734;DHT22;11029;47.820;10.534;2022-08-19T01:03:55;16.20;85.90
21734;DHT22;11029;47.820;10.534;2022-08-19T01:06:25;16.20;86.00
21734;DHT22;11029;47.820;10.534;2022-08-19T01:08:53;16.10;85.70
21734;DHT22;11029;47.820;10.534;2022-08-19T01:11:20;16.10;86.00
21734;DHT22;11029;47.820;10.534;2022-08-19T01:13:48;16.10;86.10
21734;DHT22;11029;47.820;10.534;2022-08-19T01:16:18;16.10;85.70
21734;DHT22;11029;47.820;10.534;2022-08-19T01:18:47;16.00;86.10
21734;DHT22;11029;47.820;10.534;2022-08-19T01:21:27;16.00;86.20
21734;DHT22;11029;47.820;10.534;2022-08-19T01:23:57;16.00;85.90
21734;DHT22;11029;47.820;10.534;2022-08-19T01:26:26;16.00;85.80
21734;DHT22;11029;47.820;10.534;2022-08-19T01:28:56;15.90;86.20
21734;DHT22;11029;47.820;10.534;2022-08-19T01:31:28;16.00;85.70
21734;DHT22;11029;47.820;10.534;2022-08-19T01:34:00;16.00;85.70
21734;DHT22;11029;47.820;10.534;2022-08-19T01:36:38;16.00;85.80
21734;DHT22;11029;47.820;10.534;2022-08-19T01:39:07;16.00;85.30
21734;DHT22;11029;47.820;10.534;2022-08-19T01:41:34;16.00;85.40
21734;DHT22;11029;47.820;10.534;2022-08-19T01:44:02;16.00;85.20
21734;DHT22;11029;47.820;10.534;2022-08-19T01:46:47;16.00;85.50
21734;DHT22;11029;47.820;10.534;2022-08-19T01:49:16;16.10;85.30
21734;DHT22;11029;47.820;10.534;2022-08-19T01:51:43;16.00;85.50
21734;DHT22;11029;47.820;10.534;2022-08-19T01:54:13;16.10;85.30
21734;DHT22;11029;47.820;10.534;2022-08-19T01:56:57;16.10;85.20
21734;DHT22;11029;47.820;10.534;2022-08-19T01:59:24;16.10;85.10
21734;DHT22;11029;47.820;10.534;2022-08-19T02:01:51;16.10;85.60
21734;DHT22;11029;47.820;10.534;2022-08-19T02:04:18;16.00;85.90
21734;DHT22;11029;47.820;10.534;2022-08-19T02:06:45;16.00;86.00
21734;DHT22;11029;47.820;10.534;2022-08-19T02:09:12;15.90;86.50
21734;DHT22;11029;47.820;10.534;2022-08-19T02:11:38;15.90;86.70
21734;DHT22;11029;47.820;10.534;2022-08-19T02:14:07;15.90;86.70
21734;DHT22;11029;47.820;10.534;2022-08-19T02:16:34;15.90;86.80
21734;DHT22;11029;47.820;10.534;2022-08-19T02:19:02;15.90;86.90
21734;DHT22;11029;47.820;10.534;2022-08-19T02:21:30;15.90;86.80
21734;DHT22;11029;47.820;10.534;2022-08-19T02:23:57;16.00;86.40
21734;DHT22;11029;47.820;10.534;2022-08-19T02:26:24;16.10;86.00
21734;DHT22;11029;47.820;10.534;2022-08-19T02:28:53;16.10;85.90
21734;DHT22;11029;47.820;10.534;2022-08-19T02:31:23;16.10;85.80
21734;DHT22;11029;47.820;10.534;2022-08-19T02:33:51;16.10;85.80
21734;DHT22;11029;47.820;10.534;2022-08-19T02:36:23;16.10;85.70
21734;DHT22;11029;47.820;10.534;2022-08-19T02:38:50;16.20;85.70
21734;DHT22;11029;47.820;10.534;2022-08-19T02:41:30;16.10;85.60
21734;DHT22;11029;47.820;10.534;2022-08-19T02:43:59;16.10;85.50
21734;DHT22;11029;47.820;10.534;2022-08-19T02:46:48;16.10;85.70
21734;DHT22;11029;47.820;10.534;2022-08-19T02:49:18;16.20;85.60
21734;DHT22;11029;47.820;10.534;2022-08-19T02:51:45;16.20;85.70
21734;DHT22;11029;47.820;10.534;2022-08-19T02:54:13;16.30;85.40
21734;DHT22;11029;47.820;10.534;2022-08-19T02:56:42;16.30;85.60
21734;DHT22;11029;47.820;10.534;2022-08-19T02:59:09;16.30;85.40
21734;DHT22;11029;47.820;10.534;2022-08-19T03:01:40;16.30;85.40
21734;DHT22;11029;47.820;10.534;2022-08-19T03:04:10;16.30;84.90
21734;DHT22;11029;47.820;10.534;2022-08-19T03:06:39;16.20;85.40
21734;DHT22;11029;47.820;10.534;2022-08-19T03:09:07;16.30;85.30
21734;DHT22;11029;47.820;10.534;2022-08-19T03:11:35;16.30;85.30
21734;DHT22;11029;47.820;10.534;2022-08-19T03:14:02;16.30;85.40
21734;DHT22;11029;47.820;10.534;2022-08-19T03:16:32;16.30;85.60
21734;DHT22;11029;47.820;10.534;2022-08-19T03:19:00;16.30;85.40
21734;DHT22;11029;47.820;10.534;2022-08-19T03:21:30;16.40;85.40
21734;DHT22;11029;47.820;10.534;2022-08-19T03:24:00;16.40;85.40
21734;DHT22;11029;47.820;10.534;2022-08-19T03:26:28;16.30;84.90
21734;DHT22;11029;47.820;10.534;2022-08-19T03:28:56;16.30;84.90
21734;DHT22;11029;47.820;10.534;2022-08-19T03:31:26;16.20;85.30
21734;DHT22;11029;47.820;10.534;2022-08-19T03:34:16;16.20;85.50
21734;DHT22;11029;47.820;10.534;2022-08-19T03:36:45;16.20;85.10
21734;DHT22;11029;47.820;10.534;2022-08-19T03:39:13;16.20;85.80
21734;DHT22;11029;47.820;10.534;2022-08-19T03:41:42;16.20;85.40
21734;DHT22;11029;47.820;10.534;2022-08-19T03:44:17;16.20;85.30
21734;DHT22;11029;47.820;10.534;2022-08-19T03:46:52;16.20;84.90
21734;DHT22;11029;47.820;10.534;2022-08-19T03:49:23;16.10;84.70
21734;DHT22;11029;47.820;10.534;2022-08-19T03:51:56;16.10;84.80
21734;DHT22;11029;47.820;10.534;2022-08-19T03:54:24;16.10;84.60
21734;DHT22;11029;47.820;10.534;2022-08-19T03:56:52;16.00;84.60
21734;DHT22;11029;47.820;10.534;2022-08-19T03:59:26;15.90;85.30
21734;DHT22;11029;47.820;10.534;2022-08-19T04:01:55;15.90;85.10
21734;DHT22;11029;47.820;10.534;2022-08-19T04:04:22;15.90;85.10
21734;DHT22;11029;47.820;10.534;2022-08-19T04:06:50;15.90;85.20
21734;DHT22;11029;47.820;10.534;2022-08-19T04:09:18;15.90;84.90
21734;DHT22;11029;47.820;10.534;2022-08-19T04:11:51;15.90;85.00
21734;DHT22;11029;47.820;10.534;2022-08-19T04:14:23;15.90;84.60
21734;DHT22;11029;47.820;10.534;2022-08-19T04:16:51;15.90;84.20
21734;DHT22;11029;47.820;10.534;2022-08-19T04:19:19;15.90;83.40
21734;DHT22;11029;47.820;10.534;2022-08-19T04:21:48;15.80;83.50
21734;DHT22;11029;47.820;10.534;2022-08-19T04:24:16;15.60;84.40
21734;DHT22;11029;47.820;10.534;2022-08-19T04:26:43;15.50;85.10
21734;DHT22;11029;47.820;10.534;2022-08-19T04:29:13;15.60;85.40
21734;DHT22;11029;47.820;10.534;2022-08-19T04:31:42;15.60;85.10
21734;DHT22;11029;47.820;10.534;2022-08-19T04:34:12;15.70;85.00
21734;DHT22;11029;47.820;10.534;2022-08-19T04:36:41;15.80;84.90
21734;DHT22;11029;47.820;10.534;2022-08-19T04:39:11;15.80;84.50
21734;DHT22;11029;47.820;10.534;2022-08-19T04:41:38;15.90;84.30
21734;DHT22;11029;47.820;10.534;2022-08-19T04:44:24;15.90;84.00
21734;DHT22;11029;47.820;10.534;2022-08-19T04:46:52;16.00;83.60
21734;DHT22;11029;47.820;10.534;2022-08-19T04:49:20;16.00;83.50
21734;DHT22;11029;47.820;10.534;2022-08-19T04:51:51;15.90;83.60
21734;DHT22;11029;47.820;10.534;2022-08-19T04:54:22;15.90;83.90
21734;DHT22;11029;47.820;10.534;2022-08-19T04:57:07;15.80;84.50
21734;DHT22;11029;47.820;10.534;2022-08-19T04:59:38;15.80;84.80
21734;DHT22;11029;47.820;10.534;2022-08-19T05:02:07;15.80;84.90
21734;DHT22;11029;47.820;10.534;2022-08-19T05:04:35;15.90;84.80
21734;DHT22;11029;47.820;10.534;2022-08-19T05:07:06;15.90;84.70
21734;DHT22;11029;47.820;10.534;2022-08-19T05:09:34;16.00;84.50
21734;DHT22;11029;47.820;10.534;2022-08-19T05:12:21;16.10;84.80
21734;DHT22;11029;47.820;10.534;2022-08-19T05:14:55;16.10;84.30
21734;DHT22;11029;47.820;10.534;2022-08-19T05:17:24;16.20;85.00
21734;DHT22;11029;47.820;10.534;2022-08-19T05:19:55;16.30;84.50
21734;DHT22;11029;47.820;10.534;2022-08-19T05:22:42;16.40;84.50
21734;DHT22;11029;47.820;10.534;2022-08-19T05:25:12;16.50;84.10
21734;DHT22;11029;47.820;10.534;2022-08-19T05:27:41;16.60;83.80
21734;DHT22;11029;47.820;10.534;2022-08-19T05:30:09;16.60;83.90
21734;DHT22;11029;47.820;10.534;2022-08-19T05:32:36;16.60;82.70
21734;DHT22;11029;47.820;10.534;2022-08-19T05:35:04;16.60;83.40
21734;DHT22;11029;47.820;10.534;2022-08-19T05:37:31;16.70;83.50
21734;DHT22;11029;47.820;10.534;2022-08-19T05:39:58;16.70;83.20
21734;DHT22;11029;47.820;10.534;2022-08-19T05:42:25;16.70;83.70
21734;DHT22;11029;47.820;10.534;2022-08-19T05:44:52;16.80;83.50
21734;DHT22;11029;47.820;10.534;2022-08-19T05:47:19;16.90;83.40
21734;DHT22;11029;47.820;10.534;2022-08-19T05:49:47;17.00;82.60
21734;DHT22;11029;47.820;10.534;2022-08-19T05:52:15;17.00;83.30
21734;DHT22;11029;47.820;10.534;2022-08-19T05:54:51;16.80;84.20
21734;DHT22;11029;47.820;10.534;2022-08-19T05:57:18;16.80;84.30
21734;DHT22;11029;47.820;10.534;2022-08-19T05:59:45;16.80;84.20
21734;DHT22;11029;47.820;10.534;2022-08-19T06:02:18;16.90;84.40
21734;DHT22;11029;47.820;10.534;2022-08-19T06:04:45;16.90;84.00
21734;DHT22;11029;47.820;10.534;2022-08-19T06:07:12;16.90;84.30
21734;DHT22;11029;47.820;10.534;2022-08-19T06:09:40;16.90;84.30
21734;DHT22;11029;47.820;10.534;2022-08-19T06:12:09;16.80;83.80
21734;DHT22;11029;47.820;10.534;2022-08-19T06:14:36;16.80;84.40
21734;DHT22;11029;47.820;10.534;2022-08-19T06:17:07;16.80;84.90
21734;DHT22;11029;47.820;10.534;2022-08-19T06:19:35;16.80;84.70
21734;DHT22;11029;47.820;10.534;2022-08-19T06:22:06;16.80;84.60
21734;DHT22;11029;47.820;10.534;2022-08-19T06:24:34;16.70;84.30
21734;DHT22;11029;47.820;10.534;2022-08-19T06:27:02;16.70;84.40
21734;DHT22;11029;47.820;10.534;2022-08-19T06:29:29;16.80;84.50
21734;DHT22;11029;47.820;10.534;2022-08-19T06:31:59;16.80;84.60
21734;DHT22;11029;47.820;10.534;2022-08-19T06:34:28;16.80;83.80
21734;DHT22;11029;47.820;10.534;2022-08-19T06:36:56;16.90;84.40
21734;DHT22;11029;47.820;10.534;2022-08-19T06:39:26;16.90;84.50
21734;DHT22;11029;47.820;10.534;2022-08-19T06:41:56;17.00;84.10
21734;DHT22;11029;47.820;10.534;2022-08-19T06:44:29;17.00;83.40
21734;DHT22;11029;47.820;10.534;2022-08-19T06:47:10;17.10;83.30
21734;DHT22;11029;47.820;10.534;2022-08-19T06:49:49;17.00;83.30
21734;DHT22;11029;47.820;10.534;2022-08-19T06:52:15;17.00;83.20
21734;DHT22;11029;47.820;10.534;2022-08-19T06:54:42;17.00;83.20
21734;DHT22;11029;47.820;10.534;2022-08-19T06:57:21;16.90;83.60
21734;DHT22;11029;47.820;10.534;2022-08-19T06:59:48;16.80;83.70
21734;DHT22;11029;47.820;10.534;2022-08-19T07:02:15;16.70;84.40
21734;DHT22;11029;47.820;10.534;2022-08-19T07:04:47;16.70;84.10
21734;DHT22;11029;47.820;10.534;2022-08-19T07:07:19;16.70;85.00
21734;DHT22;11029;47.820;10.534;2022-08-19T07:09:48;16.60;85.30
21734;DHT22;11029;47.820;10.534;2022-08-19T07:12:29;16.50;85.50
21734;DHT22;11029;47.820;10.534;2022-08-19T07:14:58;16.60;85.60
21734;DHT22;11029;47.820;10.534;2022-08-19T07:17:26;16.60;86.00
21734;DHT22;11029;47.820;10.534;2022-08-19T07:19:53;16.70;86.00
21734;DHT22;11029;47.820;10.534;2022-08-19T07:22:21;16.70;85.80
21734;DHT22;11029;47.820;10.534;2022-08-19T07:24:51;16.80;85.40
21734;DHT22;11029;47.820;10.534;2022-08-19T07:27:18;16.70;84.80
21734;DHT22;11029;47.820;10.534;2022-08-19T07:29:52;16.60;85.10
21734;DHT22;11029;47.820;10.534;2022-08-19T07:32:22;16.60;85.70
21734;DHT22;11029;47.820;10.534;2022-08-19T07:34:51;16.60;86.10
21734;DHT22;11029;47.820;10.534;2022-08-19T07:37:18;16.70;85.80
21734;DHT22;11029;47.820;10.534;2022-08-19T07:39:45;16.70;86.00
21734;DHT22;11029;47.820;10.534;2022-08-19T07:42:11;16.60;86.40
21734;DHT22;11029;47.820;10.534;2022-08-19T07:44:39;16.60;86.20
21734;DHT22;11029;47.820;10.534;2022-08-19T07:47:06;16.50;86.00
21734;DHT22;11029;47.820;10.534;2022-08-19T07:49:53;16.40;86.80
21734;DHT22;11029;47.820;10.534;2022-08-19T07:52:20;16.40;87.60
21734;DHT22;11029;47.820;10.534;2022-08-19T07:54:47;16.30;86.90
21734;DHT22;11029;47.820;10.534;2022-08-19T07:57:14;16.30;87.30
21734;DHT22;11029;47.820;10.534;2022-08-19T07:59:40;16.40;87.40
21734;DHT22;11029;47.820;10.534;2022-08-19T08:02:08;16.30;88.00
21734;DHT22;11029;47.820;10.534;2022-08-19T08:04:35;16.20;88.40
21734;DHT22;11029;47.820;10.534;2022-08-19T08:07:20;16.20;88.60
21734;DHT22;11029;47.820;10.534;2022-08-19T08:10:12;16.00;89.00
21734;DHT22;11029;47.820;10.534;2022-08-19T08:12:47;16.10;89.70
21734;DHT22;11029;47.820;10.534;2022-08-19T08:15:34;16.10;89.20
21734;DHT22;11029;47.820;10.534;2022-08-19T08:18:07;16.20;89.00
21734;DHT22;11029;47.820;10.534;2022-08-19T08:20:34;16.10;89.10
21734;DHT22;11029;47.820;10.534;2022-08-19T08:23:01;16.00;89.60
21734;DHT22;11029;47.820;10.534;2022-08-19T08:25:47;16.10;89.60
21734;DHT22;11029;47.820;10.534;2022-08-19T08:28:16;16.20;89.80
21734;DHT22;11029;47.820;10.534;2022-08-19T08:30:44;16.30;89.50
21734;DHT22;11029;47.820;10.534;2022-08-19T08:33:14;16.30;88.60
21734;DHT22;11029;47.820;10.534;2022-08-19T08:35:58;16.40;88.80
21734;DHT22;11029;47.820;10.534;2022-08-19T08:38:24;16.50;87.50
21734;DHT22;11029;47.820;10.534;2022-08-19T08:40:58;16.60;88.40
21734;DHT22;11029;47.820;10.534;2022-08-19T08:43:36;16.70;88.50
21734;DHT22;11029;47.820;10.534;2022-08-19T08:51:57;16.90;85.80
21734;DHT22;11029;47.820;10.534;2022-08-19T08:54:43;16.90;85.90
21734;DHT22;11029;47.820;10.534;2022-08-19T08:57:43;16.80;86.50
21734;DHT22;11029;47.820;10.534;2022-08-19T09:00:17;16.80;86.60
21734;DHT22;11029;47.820;10.534;2022-08-19T09:02:44;16.60;87.40
21734;DHT22;11029;47.820;10.534;2022-08-19T09:05:18;16.60;87.10
21734;DHT22;11029;47.820;10.534;2022-08-19T09:10:44;16.30;88.40
21734;DHT22;11029;47.820;10.534;2022-08-19T09:16:22;16.30;88.00
21734;DHT22;11029;47.820;10.534;2022-08-19T09:18:58;16.30;88.60
21734;DHT22;11029;47.820;10.534;2022-08-19T09:21:28;16.40;88.20
21734;DHT22;11029;47.820;10.534;2022-08-19T09:24:02;16.50;87.40
21734;DHT22;11029;47.820;10.534;2022-08-19T09:26:31;16.40;87.60
21734;DHT22;11029;47.820;10.534;2022-08-19T09:29:17;16.40;88.20
21734;DHT22;11029;47.820;10.534;2022-08-19T09:31:44;16.50;87.60
21734;DHT22;11029;47.820;10.534;2022-08-19T09:34:11;16.50;87.60
21734;DHT22;11029;47.820;10.534;2022-08-19T09:36:50;16.50;87.90
21734;DHT22;11029;47.820;10.534;2022-08-19T09:39:22;16.50;87.30
21734;DHT22;11029;47.820;10.534;2022-08-19T09:41:49;16.60;87.50
21734;DHT22;11029;47.820;10.534;2022-08-19T09:44:17;16.50;87.50
21734;DHT22;11029;47.820;10.534;2022-08-19T09:46:44;16.60;87.70
21734;DHT22;11029;47.820;10.534;2022-08-19T09:49:14;16.50;87.70
21734;DHT22;11029;47.820;10.534;2022-08-19T09:51:41;16.50;88.10
21734;DHT22;11029;47.820;10.534;2022-08-19T09:54:08;16.40;87.70
21734;DHT22;11029;47.820;10.534;2022-08-19T09:56:37;16.40;87.70
21734;DHT22;11029;47.820;10.534;2022-08-19T09:59:03;16.30;87.60
21734;DHT22;11029;47.820;10.534;2022-08-19T10:01:31;16.30;87.90
21734;DHT22;11029;47.820;10.534;2022-08-19T10:03:59;16.30;87.90
21734;DHT22;11029;47.820;10.534;2022-08-19T10:06:28;16.30;88.00
21734;DHT22;11029;47.820;10.534;2022-08-19T10:09:12;16.20;88.10
21734;DHT22;11029;47.820;10.534;2022-08-19T10:11:43;16.20;88.30
21734;DHT22;11029;47.820;10.534;2022-08-19T10:14:20;16.20;88.30
21734;DHT22;11029;47.820;10.534;2022-08-19T10:16:50;16.30;88.20
21734;DHT22;11029;47.820;10.534;2022-08-19T10:19:19;16.30;88.00
21734;DHT22;11029;47.820;10.534;2022-08-19T10:21:52;16.30;87.80
21734;DHT22;11029;47.820;10.534;2022-08-19T10:24:19;16.40;88.00
21734;DHT22;11029;47.820;10.534;2022-08-19T10:26:47;16.40;88.20
21734;DHT22;11029;47.820;10.534;2022-08-19T10:29:24;16.40;87.50
21734;DHT22;11029;47.820;10.534;2022-08-19T10:31:59;16.40;88.10
21734;DHT22;11029;47.820;10.534;2022-08-19T10:34:29;16.40;88.00
21734;DHT22;11029;47.820;10.534;2022-08-19T10:36:57;16.40;87.60
21734;DHT22;11029;47.820;10.534;2022-08-19T10:39:31;16.40;88.10
21734;DHT22;11029;47.820;10.534;2022-08-19T10:42:09;16.40;88.20
21734;DHT22;11029;47.820;10.534;2022-08-19T10:44:40;16.50;87.70
21734;DHT22;11029;47.820;10.534;2022-08-19T10:47:07;16.50;88.00
21734;DHT22;11029;47.820;10.534;2022-08-19T10:49:53;16.60;87.80
21734;DHT22;11029;47.820;10.534;2022-08-19T10:52:44;16.60;87.00
21734;DHT22;11029;47.820;10.534;2022-08-19T10:55:18;16.60;87.20
21734;DHT22;11029;47.820;10.534;2022-08-19T10:58:03;16.60;87.70
21734;DHT22;11029;47.820;10.534;2022-08-19T11:00:30;16.60;87.60
21734;DHT22;11029;47.820;10.534;2022-08-19T11:02:58;16.60;87.60
21734;DHT22;11029;47.820;10.534;2022-08-19T11:05:25;16.70;87.80
21734;DHT22;11029;47.820;10.534;2022-08-19T11:07:51;16.60;87.50
21734;DHT22;11029;47.820;10.534;2022-08-19T11:10:19;16.70;87.40
21734;DHT22;11029;47.820;10.534;2022-08-19T11:12:48;16.60;87.50
21734;DHT22;11029;47.820;10.534;2022-08-19T11:15:15;16.70;87.80
21734;DHT22;11029;47.820;10.534;2022-08-19T11:17:42;16.70;87.70
21734;DHT22;11029;47.820;10.534;2022-08-19T11:20:11;16.60;87.20
21734;DHT22;11029;47.820;10.534;2022-08-19T11:22:39;16.50;87.70
21734;DHT22;11029;47.820;10.534;2022-08-19T11:25:09;16.50;87.90
21734;DHT22;11029;47.820;10.534;2022-08-19T11:27:41;16.50;88.10
21734;DHT22;11029;47.820;10.534;2022-08-19T11:30:11;16.50;88.10
21734;DHT22;11029;47.820;10.534;2022-08-19T11:32:40;16.50;88.10
21734;DHT22;11029;47.820;10.534;2022-08-19T11:35:14;16.40;88.10
21734;DHT22;11029;47.820;10.534;2022-08-19T11:37:41;16.40;88.00
21734;DHT22;11029;47.820;10.534;2022-08-19T11:40:09;16.30;87.50
21734;DHT22;11029;47.820;10.534;2022-08-19T11:42:36;16.30;87.50
21734;DHT22;11029;47.820;10.534;2022-08-19T11:45:26;16.30;87.80
21734;DHT22;11029;47.820;10.534;2022-08-19T11:47:54;16.30;87.50
21734;DHT22;11029;47.820;10.534;2022-08-19T11:50:22;16.40;88.20
21734;DHT22;11029;47.820;10.534;2022-08-19T11:52:50;16.40;88.10
21734;DHT22;11029;47.820;10.534;2022-08-19T11:55:17;16.50;87.90
21734;DHT22;11029;47.820;10.534;2022-08-19T11:57:45;16.50;87.30
21734;DHT22;11029;47.820;10.534;2022-08-19T12:00:13;16.50;87.60
21734;DHT22;11029;47.820;10.534;2022-08-19T12:02:40;16.50;88.00
21734;DHT22;11029;47.820;10.534;2022-08-19T12:05:08;16.40;87.50
21734;DHT22;11029;47.820;10.534;2022-08-19T12:07:39;16.40;88.00
21734;DHT22;11029;47.820;10.534;2022-08-19T12:10:07;16.20;86.30
21734;DHT22;11029;47.820;10.534;2022-08-19T12:12:34;16.20;87.00
21734;DHT22;11029;47.820;10.534;2022-08-19T12:15:01;16.20;86.20
21734;DHT22;11029;47.820;10.534;2022-08-19T12:17:28;16.30;85.80
21734;DHT22;11029;47.820;10.534;2022-08-19T12:19:57;16.30;85.90
21734;DHT22;11029;47.820;10.534;2022-08-19T12:22:24;16.20;86.50
21734;DHT22;11029;47.820;10.534;2022-08-19T12:24:50;16.10;86.30
21734;DHT22;11029;47.820;10.534;2022-08-19T12:27:19;16.10;86.90
21734;DHT22;11029;47.820;10.534;2022-08-19T12:30:07;16.10;86.70
21734;DHT22;11029;47.820;10.534;2022-08-19T12:32:36;16.10;86.90
21734;DHT22;11029;47.820;10.534;2022-08-19T12:35:03;16.10;86.80
21734;DHT22;11029;47.820;10.534;2022-08-19T12:37:30;16.20;87.20
21734;DHT22;11029;47.820;10.534;2022-08-19T12:39:58;16.30;86.60
21734;DHT22;11029;47.820;10.534;2022-08-19T12:42:25;16.20;86.90
21734;DHT22;11029;47.820;10.534;2022-08-19T12:44:52;16.30;87.40
21734;DHT22;11029;47.820;10.534;2022-08-19T12:47:19;16.40;86.70
21734;DHT22;11029;47.820;10.534;2022-08-19T12:49:48;16.30;86.70
21734;DHT22;11029;47.820;10.534;2022-08-19T12:52:22;16.30;86.80
21734;DHT22;11029;47.820;10.534;2022-08-19T12:54:50;16.40;86.70
21734;DHT22;11029;47.820;10.534;2022-08-19T12:57:21;16.50;86.80
21734;DHT22;11029;47.820;10.534;2022-08-19T12:59:57;16.50;86.40
21734;DHT22;11029;47.820;10.534;2022-08-19T13:02:23;16.50;86.40
21734;DHT22;11029;47.820;10.534;2022-08-19T13:04:50;16.60;85.40
21734;DHT22;11029;47.820;10.534;2022-08-19T13:07:17;16.70;84.60
21734;DHT22;11029;47.820;10.534;2022-08-19T13:09:44;16.80;84.80
21734;DHT22;11029;47.820;10.534;2022-08-19T13:12:11;16.80;84.50
21734;DHT22;11029;47.820;10.534;2022-08-19T13:14:40;16.80;84.80
21734;DHT22;11029;47.820;10.534;2022-08-19T13:17:07;16.90;86.00
21734;DHT22;11029;47.820;10.534;2022-08-19T13:19:36;17.00;85.20
21734;DHT22;11029;47.820;10.534;2022-08-19T13:22:04;17.10;84.60
21734;DHT22;11029;47.820;10.534;2022-08-19T13:24:38;17.10;85.40
21734;DHT22;11029;47.820;10.534;2022-08-19T13:27:12;17.20;84.50
21734;DHT22;11029;47.820;10.534;2022-08-19T13:29:40;17.20;83.90
21734;DHT22;11029;47.820;10.534;2022-08-19T13:32:25;17.20;84.50
21734;DHT22;11029;47.820;10.534;2022-08-19T13:35:11;17.20;85.10
21734;DHT22;11029;47.820;10.534;2022-08-19T13:37:42;17.20;85.30
21734;DHT22;11029;47.820;10.534;2022-08-19T13:40:18;17.20;84.70
21734;DHT22;11029;47.820;10.534;2022-08-19T13:42:48;17.20;84.00
21734;DHT22;11029;47.820;10.534;2022-08-19T13:45:18;17.10;84.40
21734;DHT22;11029;47.820;10.534;2022-08-19T13:47:47;17.20;84.60
21734;DHT22;11029;47.820;10.534;2022-08-19T13:50:17;17.20;84.80
21734;DHT22;11029;47.820;10.534;2022-08-19T13:52:45;17.30;84.60
21734;DHT22;11029;47.820;10.534;2022-08-19T13:55:12;17.20;85.00
21734;DHT22;11029;47.820;10.534;2022-08-19T13:57:39;17.20;85.00
21734;DHT22;11029;47.820;10.534;2022-08-19T14:00:12;17.20;85.20
21734;DHT22;11029;47.820;10.534;2022-08-19T14:02:40;17.20;84.50
21734;DHT22;11029;47.820;10.534;2022-08-19T14:05:10;17.20;85.70
21734;DHT22;11029;47.820;10.534;2022-08-19T14:07:37;17.20;85.10
21734;DHT22;11029;47.820;10.534;2022-08-19T14:10:07;17.20;84.30
21734;DHT22;11029;47.820;10.534;2022-08-19T14:12:35;17.10;85.50
21734;DHT22;11029;47.820;10.534;2022-08-19T14:15:03;17.00;84.10
21734;DHT22;11029;47.820;10.534;2022-08-19T14:17:30;16.90;85.10
21734;DHT22;11029;47.820;10.534;2022-08-19T14:19:59;16.90;85.10
21734;DHT22;11029;47.820;10.534;2022-08-19T14:22:38;16.90;86.00
21734;DHT22;11029;47.820;10.534;2022-08-19T14:25:07;16.90;85.20
21734;DHT22;11029;47.820;10.534;2022-08-19T14:27:39;16.90;85.50
21734;DHT22;11029;47.820;10.534;2022-08-19T14:30:09;16.90;85.10
21734;DHT22;11029;47.820;10.534;2022-08-19T14:32:37;16.80;85.00
21734;DHT22;11029;47.820;10.534;2022-08-19T14:35:05;16.70;84.80
21734;DHT22;11029;47.820;10.534;2022-08-19T14:37:34;16.80;83.80
21734;DHT22;11029;47.820;10.534;2022-08-19T14:40:13;16.80;83.50
21734;DHT22;11029;47.820;10.534;2022-08-19T14:42:41;16.90;84.40
21734;DHT22;11029;47.820;10.534;2022-08-19T14:45:09;16.90;83.50
21734;DHT22;11029;47.820;10.534;2022-08-19T14:47:36;17.00;83.00
21734;DHT22;11029;47.820;10.534;2022-08-19T14:50:07;17.00;82.00
21734;DHT22;11029;47.820;10.534;2022-08-19T14:52:37;16.90;81.50
21734;DHT22;11029;47.820;10.534;2022-08-19T14:55:04;16.80;83.10
21734;DHT22;11029;47.820;10.534;2022-08-19T14:57:33;16.80;81.90
21734;DHT22;11029;47.820;10.534;2022-08-19T15:00:00;16.80;83.10
21734;DHT22;11029;47.820;10.534;2022-08-19T15:02:27;16.80;83.60
21734;DHT22;11029;47.820;10.534;2022-08-19T15:05:00;16.70;83.60
21734;DHT22;11029;47.820;10.534;2022-08-19T15:07:28;16.80;84.30
21734;DHT22;11029;47.820;10.534;2022-08-19T15:09:56;16.70;82.70
21734;DHT22;11029;47.820;10.534;2022-08-19T15:12:24;16.60;83.40
21734;DHT22;11029;47.820;10.534;2022-08-19T15:14:51;16.60;83.60
21734;DHT22;11029;47.820;10.534;2022-08-19T15:17:22;16.60;83.20
21734;DHT22;11029;47.820;10.534;2022-08-19T15:20:10;16.60;84.60
21734;DHT22;11029;47.820;10.534;2022-08-19T15:22:39;16.60;84.30
21734;DHT22;11029;47.820;10.534;2022-08-19T15:25:08;16.50;85.50
21734;DHT22;11029;47.820;10.534;2022-08-19T15:27:37;16.50;85.90
21734;DHT22;11029;47.820;10.534;2022-08-19T15:30:06;16.60;86.00
21734;DHT22;11029;47.820;10.534;2022-08-19T15:32:35;16.60;85.60
21734;DHT22;11029;47.820;10.534;2022-08-19T15:35:04;16.50;85.20
21734;DHT22;11029;47.820;10.534;2022-08-19T15:37:31;16.40;86.20
21734;DHT22;11029;47.820;10.534;2022-08-19T15:40:05;16.40;86.20
21734;DHT22;11029;47.820;10.534;2022-08-19T15:42:37;16.40;86.30
21734;DHT22;11029;47.820;10.534;2022-08-19T15:45:05;16.40;86.80
21734;DHT22;11029;47.820;10.534;2022-08-19T15:47:32;16.50;87.00